sensor_id;sensor_type;location;lat;lon;timestamp;P1;durP1;ratioP1;P2;durP2;ratioP2
26502;SDS011;14177;51.520;6.764;2024-03-06T00:02:21;19.85;;;11.95;;
26502;SDS011;14177;51.520;6.764;2024-03-06T00:04:48;22.48;;;12.38;;
26502;SDS011;14177;51.520;6.764;2024-03-06T00:07:16;21.17;;;12.38;;
26502;SDS011;14177;51.520;6.764;2024-03-06T00:09:43;20.55;;;11.90;;
26502;SDS011;14177;51.520;6.764;2024-03-06T00:12:11;20.23;;;12.35;;
26502;SDS011;14177;51.520;6.764;2024-03-06T00:14:38;20.98;;;12.73;;
26502;SDS011;14177;51.520;6.764;2024-03-06T00:17:05;23.25;;;14.50;;
26502;SDS011;14177;51.520;6.764;2024-03-06T00:19:33;25.73;;;14.10;;
26502;SDS011;14177;51.520;6.764;2024-03-06T00:22:01;27.70;;;14.57;;
26502;SDS011;14177;51.520;6.764;2024-03-06T00:24:28;25.20;;;13.07;;
26502;SDS011;14177;51.520;6.764;2024-03-06T00:26:55;23.88;;;14.18;;
26502;SDS011;14177;51.520;6.764;2024-03-06T00:29:22;23.85;;;13.32;;
26502;SDS011;14177;51.520;6.764;2024-03-06T00:31:50;24.73;;;13.95;;
26502;SDS011;14177;51.520;6.764;2024-03-06T00:34:17;22.88;;;12.80;;
26502;SDS011;14177;51.520;6.764;2024-03-06T00:36:44;23.77;;;13.25;;
26502;SDS011;14177;51.520;6.764;2024-03-06T00:39:11;24.25;;;14.27;;
26502;SDS011;14177;51.520;6.764;2024-03-06T00:41:40;23.73;;;12.98;;
26502;SDS011;14177;51.520;6.764;2024-03-06T00:44:08;23.30;;;12.93;;
26502;SDS011;14177;51.520;6.764;2024-03-06T00:46:35;19.08;;;11.30;;
26502;SDS011;14177;51.520;6.764;2024-03-06T00:49:03;20.95;;;11.20;;
26502;SDS011;14177;51.520;6.764;2024-03-06T00:51:30;17.75;;;9.98;;
26502;SDS011;14177;51.520;6.764;2024-03-06T00:54:09;19.42;;;10.50;;
26502;SDS011;14177;51.520;6.764;2024-03-06T00:56:37;21.90;;;11.48;;
26502;SDS011;14177;51.520;6.764;2024-03-06T00:59:05;20.70;;;11.20;;
26502;SDS011;14177;51.520;6.764;2024-03-06T01:01:32;19.38;;;11.23;;
26502;SDS011;14177;51.520;6.764;2024-03-06T01:03:59;19.02;;;10.82;;
26502;SDS011;14177;51.520;6.764;2024-03-06T01:06:27;18.33;;;10.93;;
26502;SDS011;14177;51.520;6.764;2024-03-06T01:08:54;19.38;;;11.05;;
26502;SDS011;14177;51.520;6.764;2024-03-06T01:11:23;19.02;;;11.20;;
26502;SDS011;14177;51.520;6.764;2024-03-06T01:13:50;21.25;;;11.10;;
26502;SDS011;14177;51.520;6.764;2024-03-06T01:16:17;17.63;;;10.73;;
26502;SDS011;14177;51.520;6.764;2024-03-06T01:18:45;20.92;;;12.07;;
26502;SDS011;14177;51.520;6.764;2024-03-06T01:21:12;20.45;;;12.02;;
26502;SDS011;14177;51.520;6.764;2024-03-06T01:23:40;17.95;;;10.77;;
26502;SDS011;14177;51.520;6.764;2024-03-06T01:26:07;19.88;;;11.43;;
26502;SDS011;14177;51.520;6.764;2024-03-06T01:28:34;19.50;;;12.23;;
26502;SDS011;14177;51.520;6.764;2024-03-06T01:31:01;22.67;;;12.00;;
26502;SDS011;14177;51.520;6.764;2024-03-06T01:33:28;18.90;;;11.32;;
26502;SDS011;14177;51.520;6.764;2024-03-06T01:35:55;20.63;;;12.10;;
26502;SDS011;14177;51.520;6.764;2024-03-06T01:38:21;20.33;;;11.48;;
26502;SDS011;14177;51.520;6.764;2024-03-06T01:40:48;17.63;;;11.05;;
26502;SDS011;14177;51.520;6.764;2024-03-06T01:43:22;17.85;;;11.52;;
26502;SDS011;14177;51.520;6.764;2024-03-06T01:45:51;16.92;;;11.02;;
26502;SDS011;14177;51.520;6.764;2024-03-06T01:48:20;19.40;;;11.07;;
26502;SDS011;14177;51.520;6.764;2024-03-06T01:53:24;18.77;;;10.45;;
26502;SDS011;14177;51.520;6.764;2024-03-06T01:55:53;17.08;;;11.15;;
26502;SDS011;14177;51.520;6.764;2024-03-06T01:58:21;19.85;;;11.32;;
26502;SDS011;14177;51.520;6.764;2024-03-06T02:00:50;17.92;;;10.52;;
26502;SDS011;14177;51.520;6.764;2024-03-06T02:03:20;22.15;;;11.75;;
26502;SDS011;14177;51.520;6.764;2024-03-06T02:05:50;21.33;;;11.85;;
26502;SDS011;14177;51.520;6.764;2024-03-06T02:08:19;22.23;;;12.00;;
26502;SDS011;14177;51.520;6.764;2024-03-06T02:10:46;24.77;;;12.98;;
26502;SDS011;14177;51.520;6.764;2024-03-06T02:13:13;21.23;;;12.23;;
26502;SDS011;14177;51.520;6.764;2024-03-06T02:15:41;23.95;;;12.85;;
26502;SDS011;14177;51.520;6.764;2024-03-06T02:18:11;24.30;;;12.32;;
26502;SDS011;14177;51.520;6.764;2024-03-06T02:20:39;20.02;;;11.65;;
26502;SDS011;14177;51.520;6.764;2024-03-06T02:23:07;20.85;;;12.20;;
26502;SDS011;14177;51.520;6.764;2024-03-06T02:25:34;20.38;;;12.20;;
26502;SDS011;14177;51.520;6.764;2024-03-06T02:28:02;19.17;;;11.38;;
26502;SDS011;14177;51.520;6.764;2024-03-06T02:30:30;22.67;;;12.13;;
26502;SDS011;14177;51.520;6.764;2024-03-06T02:33:03;22.27;;;12.15;;
26502;SDS011;14177;51.520;6.764;2024-03-06T02:35:32;20.63;;;12.32;;
26502;SDS011;14177;51.520;6.764;2024-03-06T02:38:00;23.75;;;12.00;;
26502;SDS011;14177;51.520;6.764;2024-03-06T02:40:29;19.77;;;12.13;;
26502;SDS011;14177;51.520;6.764;2024-03-06T02:42:57;23.45;;;13.00;;
26502;SDS011;14177;51.520;6.764;2024-03-06T02:45:24;21.52;;;12.48;;
26502;SDS011;14177;51.520;6.764;2024-03-06T02:47:51;23.77;;;12.30;;
26502;SDS011;14177;51.520;6.764;2024-03-06T02:50:18;22.38;;;12.43;;
26502;SDS011;14177;51.520;6.764;2024-03-06T02:52:47;22.48;;;12.63;;
26502;SDS011;14177;51.520;6.764;2024-03-06T02:55:14;21.73;;;12.77;;
26502;SDS011;14177;51.520;6.764;2024-03-06T02:57:41;23.67;;;13.18;;
26502;SDS011;14177;51.520;6.764;2024-03-06T03:00:08;19.85;;;11.82;;
26502;SDS011;14177;51.520;6.764;2024-03-06T03:02:39;21.45;;;11.80;;
26502;SDS011;14177;51.520;6.764;2024-03-06T03:05:06;20.83;;;11.68;;
26502;SDS011;14177;51.520;6.764;2024-03-06T03:07:35;24.85;;;12.75;;
26502;SDS011;14177;51.520;6.764;2024-03-06T03:10:03;23.02;;;12.80;;
26502;SDS011;14177;51.520;6.764;2024-03-06T03:12:31;18.58;;;11.38;;
26502;SDS011;14177;51.520;6.764;2024-03-06T03:14:58;22.02;;;12.30;;
26502;SDS011;14177;51.520;6.764;2024-03-06T03:17:25;20.00;;;13.10;;
26502;SDS011;14177;51.520;6.764;2024-03-06T03:19:52;29.48;;;15.38;;
26502;SDS011;14177;51.520;6.764;2024-03-06T03:22:19;23.42;;;13.45;;
26502;SDS011;14177;51.520;6.764;2024-03-06T03:24:46;23.40;;;13.15;;
26502;SDS011;14177;51.520;6.764;2024-03-06T03:27:13;22.63;;;12.18;;
26502;SDS011;14177;51.520;6.764;2024-03-06T03:29:40;24.55;;;13.07;;
26502;SDS011;14177;51.520;6.764;2024-03-06T03:32:07;24.08;;;13.35;;
26502;SDS011;14177;51.520;6.764;2024-03-06T03:34:34;23.15;;;13.93;;
26502;SDS011;14177;51.520;6.764;2024-03-06T03:37:01;24.02;;;13.65;;
26502;SDS011;14177;51.520;6.764;2024-03-06T03:39:29;22.33;;;11.73;;
26502;SDS011;14177;51.520;6.764;2024-03-06T03:41:55;23.23;;;13.18;;
26502;SDS011;14177;51.520;6.764;2024-03-06T03:44:22;22.77;;;12.55;;
26502;SDS011;14177;51.520;6.764;2024-03-06T03:46:49;19.35;;;11.70;;
26502;SDS011;14177;51.520;6.764;2024-03-06T03:49:17;23.77;;;13.70;;
26502;SDS011;14177;51.520;6.764;2024-03-06T03:51:44;20.60;;;12.70;;
26502;SDS011;14177;51.520;6.764;2024-03-06T03:54:11;24.08;;;12.10;;
26502;SDS011;14177;51.520;6.764;2024-03-06T03:56:38;20.35;;;11.38;;
26502;SDS011;14177;51.520;6.764;2024-03-06T03:59:06;25.42;;;12.80;;
26502;SDS011;14177;51.520;6.764;2024-03-06T04:01:34;22.42;;;12.32;;
26502;SDS011;14177;51.520;6.764;2024-03-06T04:04:01;21.80;;;12.68;;
26502;SDS011;14177;51.520;6.764;2024-03-06T04:06:28;27.55;;;13.43;;
26502;SDS011;14177;51.520;6.764;2024-03-06T04:08:55;20.50;;;12.30;;
26502;SDS011;14177;51.520;6.764;2024-03-06T04:11:22;22.30;;;11.80;;
26502;SDS011;14177;51.520;6.764;2024-03-06T04:13:49;20.25;;;11.00;;
26502;SDS011;14177;51.520;6.764;2024-03-06T04:16:17;19.90;;;11.75;;
26502;SDS011;14177;51.520;6.764;2024-03-06T04:18:44;20.20;;;11.95;;
26502;SDS011;14177;51.520;6.764;2024-03-06T04:21:13;22.25;;;11.70;;
26502;SDS011;14177;51.520;6.764;2024-03-06T04:23:42;22.25;;;12.15;;
26502;SDS011;14177;51.520;6.764;2024-03-06T04:26:10;25.17;;;12.52;;
26502;SDS011;14177;51.520;6.764;2024-03-06T04:28:38;18.33;;;10.88;;
26502;SDS011;14177;51.520;6.764;2024-03-06T04:31:05;20.13;;;11.70;;
26502;SDS011;14177;51.520;6.764;2024-03-06T04:33:32;23.17;;;11.80;;
26502;SDS011;14177;51.520;6.764;2024-03-06T04:36:00;23.17;;;12.43;;
26502;SDS011;14177;51.520;6.764;2024-03-06T04:38:35;25.63;;;13.63;;
26502;SDS011;14177;51.520;6.764;2024-03-06T04:41:02;23.90;;;12.30;;
26502;SDS011;14177;51.520;6.764;2024-03-06T04:43:31;19.60;;;11.90;;
26502;SDS011;14177;51.520;6.764;2024-03-06T04:45:59;23.65;;;12.50;;
26502;SDS011;14177;51.520;6.764;2024-03-06T04:48:26;20.45;;;12.40;;
26502;SDS011;14177;51.520;6.764;2024-03-06T04:50:53;20.60;;;12.88;;
26502;SDS011;14177;51.520;6.764;2024-03-06T04:53:20;23.90;;;13.32;;
26502;SDS011;14177;51.520;6.764;2024-03-06T04:55:47;23.98;;;12.07;;
26502;SDS011;14177;51.520;6.764;2024-03-06T04:58:14;21.35;;;12.18;;
26502;SDS011;14177;51.520;6.764;2024-03-06T05:00:41;22.02;;;12.23;;
26502;SDS011;14177;51.520;6.764;2024-03-06T05:03:08;26.17;;;13.20;;
26502;SDS011;14177;51.520;6.764;2024-03-06T05:05:53;21.40;;;12.40;;
26502;SDS011;14177;51.520;6.764;2024-03-06T05:08:37;23.57;;;12.17;;
26502;SDS011;14177;51.520;6.764;2024-03-06T05:11:22;22.80;;;12.70;;
26502;SDS011;14177;51.520;6.764;2024-03-06T05:14:06;17.52;;;10.63;;
26502;SDS011;14177;51.520;6.764;2024-03-06T05:16:51;28.05;;;12.68;;
26502;SDS011;14177;51.520;6.764;2024-03-06T05:19:36;21.02;;;12.95;;
26502;SDS011;14177;51.520;6.764;2024-03-06T05:22:21;22.83;;;12.45;;
26502;SDS011;14177;51.520;6.764;2024-03-06T05:25:06;24.15;;;12.45;;
26502;SDS011;14177;51.520;6.764;2024-03-06T05:27:51;21.48;;;11.35;;
26502;SDS011;14177;51.520;6.764;2024-03-06T05:30:35;23.27;;;12.25;;
26502;SDS011;14177;51.520;6.764;2024-03-06T05:33:20;24.58;;;11.70;;
26502;SDS011;14177;51.520;6.764;2024-03-06T05:36:05;32.13;;;13.13;;
26502;SDS011;14177;51.520;6.764;2024-03-06T05:38:50;23.20;;;13.10;;
26502;SDS011;14177;51.520;6.764;2024-03-06T05:41:34;20.43;;;12.80;;
26502;SDS011;14177;51.520;6.764;2024-03-06T05:44:19;23.85;;;13.35;;
26502;SDS011;14177;51.520;6.764;2024-03-06T05:47:03;24.85;;;11.50;;
26502;SDS011;14177;51.520;6.764;2024-03-06T05:49:47;26.55;;;13.50;;
26502;SDS011;14177;51.520;6.764;2024-03-06T05:52:32;24.77;;;12.15;;
26502;SDS011;14177;51.520;6.764;2024-03-06T05:58:02;20.70;;;11.05;;
26502;SDS011;14177;51.520;6.764;2024-03-06T06:00:40;23.90;;;12.00;;
26502;SDS011;14177;51.520;6.764;2024-03-06T06:03:07;19.67;;;10.63;;
26502;SDS011;14177;51.520;6.764;2024-03-06T06:05:38;26.88;;;12.38;;
26502;SDS011;14177;51.520;6.764;2024-03-06T06:08:06;23.60;;;13.15;;
26502;SDS011;14177;51.520;6.764;2024-03-06T06:10:33;23.55;;;12.65;;
26502;SDS011;14177;51.520;6.764;2024-03-06T06:13:01;24.08;;;12.75;;
26502;SDS011;14177;51.520;6.764;2024-03-06T06:15:31;24.27;;;11.68;;
26502;SDS011;14177;51.520;6.764;2024-03-06T06:17:58;25.33;;;13.43;;
26502;SDS011;14177;51.520;6.764;2024-03-06T06:20:26;23.38;;;13.60;;
26502;SDS011;14177;51.520;6.764;2024-03-06T06:22:53;28.88;;;14.15;;
26502;SDS011;14177;51.520;6.764;2024-03-06T06:25:20;21.08;;;11.95;;
26502;SDS011;14177;51.520;6.764;2024-03-06T06:27:47;25.52;;;13.48;;
26502;SDS011;14177;51.520;6.764;2024-03-06T06:30:16;26.75;;;13.52;;
26502;SDS011;14177;51.520;6.764;2024-03-06T06:32:43;22.92;;;12.27;;
26502;SDS011;14177;51.520;6.764;2024-03-06T06:35:11;30.38;;;13.65;;
26502;SDS011;14177;51.520;6.764;2024-03-06T06:37:40;26.00;;;13.88;;
26502;SDS011;14177;51.520;6.764;2024-03-06T06:40:08;26.38;;;13.60;;
26502;SDS011;14177;51.520;6.764;2024-03-06T06:42:35;24.52;;;12.93;;
26502;SDS011;14177;51.520;6.764;2024-03-06T06:45:03;23.63;;;13.27;;
26502;SDS011;14177;51.520;6.764;2024-03-06T06:47:33;26.77;;;14.05;;
26502;SDS011;14177;51.520;6.764;2024-03-06T06:50:01;26.55;;;13.85;;
26502;SDS011;14177;51.520;6.764;2024-03-06T06:52:32;27.95;;;15.05;;
26502;SDS011;14177;51.520;6.764;2024-03-06T06:55:01;29.25;;;13.93;;
26502;SDS011;14177;51.520;6.764;2024-03-06T06:57:30;23.45;;;13.15;;
26502;SDS011;14177;51.520;6.764;2024-03-06T06:59:58;28.52;;;13.48;;
26502;SDS011;14177;51.520;6.764;2024-03-06T07:02:50;23.88;;;13.73;;
26502;SDS011;14177;51.520;6.764;2024-03-06T07:05:19;29.10;;;14.38;;
26502;SDS011;14177;51.520;6.764;2024-03-06T07:07:47;26.80;;;14.52;;
26502;SDS011;14177;51.520;6.764;2024-03-06T07:10:18;28.42;;;14.63;;
26502;SDS011;14177;51.520;6.764;2024-03-06T07:12:45;33.35;;;15.70;;
26502;SDS011;14177;51.520;6.764;2024-03-06T07:15:12;29.23;;;14.93;;
26502;SDS011;14177;51.520;6.764;2024-03-06T07:17:39;33.38;;;15.95;;
26502;SDS011;14177;51.520;6.764;2024-03-06T07:20:06;31.60;;;15.13;;
26502;SDS011;14177;51.520;6.764;2024-03-06T07:22:35;33.58;;;17.88;;
26502;SDS011;14177;51.520;6.764;2024-03-06T07:25:02;34.17;;;16.45;;
26502;SDS011;14177;51.520;6.764;2024-03-06T07:27:29;29.15;;;16.25;;
26502;SDS011;14177;51.520;6.764;2024-03-06T07:29:56;32.45;;;16.92;;
26502;SDS011;14177;51.520;6.764;2024-03-06T07:32:23;36.03;;;16.88;;
26502;SDS011;14177;51.520;6.764;2024-03-06T07:34:51;31.48;;;16.02;;
26502;SDS011;14177;51.520;6.764;2024-03-06T07:37:17;29.33;;;15.23;;
26502;SDS011;14177;51.520;6.764;2024-03-06T07:39:45;30.90;;;17.13;;
26502;SDS011;14177;51.520;6.764;2024-03-06T07:42:15;30.40;;;16.70;;
26502;SDS011;14177;51.520;6.764;2024-03-06T07:44:42;36.30;;;17.33;;
26502;SDS011;14177;51.520;6.764;2024-03-06T07:47:09;34.85;;;17.55;;
26502;SDS011;14177;51.520;6.764;2024-03-06T07:49:36;38.13;;;18.52;;
26502;SDS011;14177;51.520;6.764;2024-03-06T07:52:03;39.08;;;18.25;;
26502;SDS011;14177;51.520;6.764;2024-03-06T07:54:30;40.92;;;19.55;;
26502;SDS011;14177;51.520;6.764;2024-03-06T07:56:59;44.63;;;21.10;;
26502;SDS011;14177;51.520;6.764;2024-03-06T07:59:26;53.17;;;21.33;;
26502;SDS011;14177;51.520;6.764;2024-03-06T08:01:53;46.30;;;20.08;;
26502;SDS011;14177;51.520;6.764;2024-03-06T08:04:22;52.70;;;21.63;;
26502;SDS011;14177;51.520;6.764;2024-03-06T08:06:49;51.60;;;22.20;;
26502;SDS011;14177;51.520;6.764;2024-03-06T08:09:16;54.17;;;22.40;;
26502;SDS011;14177;51.520;6.764;2024-03-06T08:11:43;51.25;;;21.77;;
26502;SDS011;14177;51.520;6.764;2024-03-06T08:14:11;49.63;;;21.70;;
26502;SDS011;14177;51.520;6.764;2024-03-06T08:16:41;61.15;;;23.23;;
26502;SDS011;14177;51.520;6.764;2024-03-06T08:19:08;61.03;;;22.13;;
26502;SDS011;14177;51.520;6.764;2024-03-06T08:21:36;59.35;;;22.88;;
26502;SDS011;14177;51.520;6.764;2024-03-06T08:24:03;49.53;;;23.35;;
26502;SDS011;14177;51.520;6.764;2024-03-06T08:26:30;48.67;;;22.77;;
26502;SDS011;14177;51.520;6.764;2024-03-06T08:28:58;54.20;;;23.42;;
26502;SDS011;14177;51.520;6.764;2024-03-06T08:31:25;52.70;;;23.05;;
26502;SDS011;14177;51.520;6.764;2024-03-06T08:33:52;56.88;;;23.67;;
26502;SDS011;14177;51.520;6.764;2024-03-06T08:36:19;57.47;;;23.50;;
26502;SDS011;14177;51.520;6.764;2024-03-06T08:38:47;65.93;;;25.38;;
26502;SDS011;14177;51.520;6.764;2024-03-06T08:41:15;57.97;;;25.90;;
26502;SDS011;14177;51.520;6.764;2024-03-06T08:43:42;61.33;;;25.75;;
26502;SDS011;14177;51.520;6.764;2024-03-06T08:46:09;56.55;;;24.98;;
26502;SDS011;14177;51.520;6.764;2024-03-06T08:48:36;55.38;;;24.10;;
26502;SDS011;14177;51.520;6.764;2024-03-06T08:51:04;53.30;;;24.95;;
26502;SDS011;14177;51.520;6.764;2024-03-06T08:53:37;57.53;;;24.15;;
26502;SDS011;14177;51.520;6.764;2024-03-06T08:56:04;50.58;;;23.83;;
26502;SDS011;14177;51.520;6.764;2024-03-06T08:58:33;57.90;;;26.58;;
26502;SDS011;14177;51.520;6.764;2024-03-06T09:01:00;52.38;;;26.48;;
26502;SDS011;14177;51.520;6.764;2024-03-06T09:03:27;66.82;;;28.08;;
26502;SDS011;14177;51.520;6.764;2024-03-06T09:05:54;62.35;;;28.17;;
26502;SDS011;14177;51.520;6.764;2024-03-06T09:08:21;68.53;;;28.63;;
26502;SDS011;14177;51.520;6.764;2024-03-06T09:10:49;60.40;;;27.23;;
26502;SDS011;14177;51.520;6.764;2024-03-06T09:13:16;70.10;;;29.20;;
26502;SDS011;14177;51.520;6.764;2024-03-06T09:15:43;75.13;;;31.17;;
26502;SDS011;14177;51.520;6.764;2024-03-06T09:18:10;75.95;;;30.83;;
26502;SDS011;14177;51.520;6.764;2024-03-06T09:20:37;76.15;;;31.33;;
26502;SDS011;14177;51.520;6.764;2024-03-06T09:23:04;68.88;;;29.45;;
26502;SDS011;14177;51.520;6.764;2024-03-06T09:25:31;65.07;;;29.85;;
26502;SDS011;14177;51.520;6.764;2024-03-06T09:27:58;70.30;;;30.00;;
26502;SDS011;14177;51.520;6.764;2024-03-06T09:30:26;71.43;;;31.70;;
26502;SDS011;14177;51.520;6.764;2024-03-06T09:32:54;73.15;;;32.33;;
26502;SDS011;14177;51.520;6.764;2024-03-06T09:35:21;70.35;;;32.55;;
26502;SDS011;14177;51.520;6.764;2024-03-06T09:37:49;71.60;;;32.08;;
26502;SDS011;14177;51.520;6.764;2024-03-06T09:40:22;68.80;;;31.98;;
26502;SDS011;14177;51.520;6.764;2024-03-06T09:42:50;69.15;;;31.20;;
26502;SDS011;14177;51.520;6.764;2024-03-06T09:45:18;64.40;;;30.40;;
26502;SDS011;14177;51.520;6.764;2024-03-06T09:47:49;59.88;;;25.25;;
26502;SDS011;14177;51.520;6.764;2024-03-06T09:50:22;59.72;;;26.52;;
26502;SDS011;14177;51.520;6.764;2024-03-06T09:53:17;57.38;;;28.15;;
26502;SDS011;14177;51.520;6.764;2024-03-06T09:56:21;56.17;;;27.90;;
26502;SDS011;14177;51.520;6.764;2024-03-06T09:58:52;57.42;;;27.55;;
26502;SDS011;14177;51.520;6.764;2024-03-06T10:01:23;54.20;;;25.38;;
26502;SDS011;14177;51.520;6.764;2024-03-06T10:04:16;47.72;;;24.40;;
26502;SDS011;14177;51.520;6.764;2024-03-06T10:13:56;44.63;;;23.63;;
26502;SDS011;14177;51.520;6.764;2024-03-06T10:16:33;47.50;;;24.92;;
26502;SDS011;14177;51.520;6.764;2024-03-06T10:19:18;40.28;;;22.20;;
26502;SDS011;14177;51.520;6.764;2024-03-06T10:25:08;41.47;;;21.80;;
26502;SDS011;14177;51.520;6.764;2024-03-06T10:32:03;46.22;;;22.27;;
26502;SDS011;14177;51.520;6.764;2024-03-06T10:34:31;42.78;;;22.48;;
26502;SDS011;14177;51.520;6.764;2024-03-06T10:36:59;49.70;;;23.65;;
26502;SDS011;14177;51.520;6.764;2024-03-06T10:39:30;44.97;;;20.95;;
26502;SDS011;14177;51.520;6.764;2024-03-06T10:42:06;43.63;;;20.80;;
26502;SDS011;14177;51.520;6.764;2024-03-06T10:44:35;45.08;;;23.23;;
26502;SDS011;14177;51.520;6.764;2024-03-06T10:47:07;43.45;;;21.55;;
26502;SDS011;14177;51.520;6.764;2024-03-06T10:49:37;40.53;;;23.40;;
26502;SDS011;14177;51.520;6.764;2024-03-06T10:52:09;40.55;;;22.08;;
26502;SDS011;14177;51.520;6.764;2024-03-06T10:54:36;43.00;;;22.30;;
26502;SDS011;14177;51.520;6.764;2024-03-06T10:57:08;42.00;;;22.63;;
26502;SDS011;14177;51.520;6.764;2024-03-06T10:59:37;41.85;;;23.05;;
26502;SDS011;14177;51.520;6.764;2024-03-06T11:02:05;43.05;;;23.63;;
26502;SDS011;14177;51.520;6.764;2024-03-06T11:04:37;41.53;;;22.77;;
26502;SDS011;14177;51.520;6.764;2024-03-06T11:07:07;44.50;;;23.73;;
26502;SDS011;14177;51.520;6.764;2024-03-06T11:09:40;46.15;;;22.23;;
26502;SDS011;14177;51.520;6.764;2024-03-06T11:12:08;43.13;;;22.35;;
26502;SDS011;14177;51.520;6.764;2024-03-06T11:14:36;47.33;;;22.63;;
26502;SDS011;14177;51.520;6.764;2024-03-06T11:17:08;43.53;;;22.17;;
26502;SDS011;14177;51.520;6.764;2024-03-06T11:28:50;43.33;;;22.48;;
26502;SDS011;14177;51.520;6.764;2024-03-06T11:31:18;49.08;;;24.50;;
26502;SDS011;14177;51.520;6.764;2024-03-06T11:33:47;48.38;;;24.73;;
26502;SDS011;14177;51.520;6.764;2024-03-06T11:36:52;51.20;;;24.50;;
26502;SDS011;14177;51.520;6.764;2024-03-06T11:39:38;51.70;;;25.90;;
26502;SDS011;14177;51.520;6.764;2024-03-06T11:42:07;50.95;;;25.00;;
26502;SDS011;14177;51.520;6.764;2024-03-06T11:44:35;45.83;;;24.77;;
26502;SDS011;14177;51.520;6.764;2024-03-06T11:47:05;42.92;;;22.23;;
26502;SDS011;14177;51.520;6.764;2024-03-06T11:49:35;44.42;;;24.10;;
26502;SDS011;14177;51.520;6.764;2024-03-06T11:52:05;45.00;;;23.17;;
26502;SDS011;14177;51.520;6.764;2024-03-06T11:54:36;47.05;;;24.98;;
26502;SDS011;14177;51.520;6.764;2024-03-06T11:57:04;41.17;;;23.13;;
26502;SDS011;14177;51.520;6.764;2024-03-06T11:59:34;43.63;;;22.85;;
26502;SDS011;14177;51.520;6.764;2024-03-06T12:02:05;42.85;;;22.67;;
26502;SDS011;14177;51.520;6.764;2024-03-06T12:04:34;42.63;;;22.00;;
26502;SDS011;14177;51.520;6.764;2024-03-06T12:07:06;35.72;;;18.80;;
26502;SDS011;14177;51.520;6.764;2024-03-06T12:09:36;39.70;;;19.08;;
26502;SDS011;14177;51.520;6.764;2024-03-06T12:12:09;34.60;;;18.13;;
26502;SDS011;14177;51.520;6.764;2024-03-06T12:14:40;34.20;;;18.02;;
26502;SDS011;14177;51.520;6.764;2024-03-06T12:17:16;37.15;;;18.02;;
26502;SDS011;14177;51.520;6.764;2024-03-06T12:19:58;35.53;;;17.92;;
26502;SDS011;14177;51.520;6.764;2024-03-06T12:22:33;33.38;;;17.70;;
26502;SDS011;14177;51.520;6.764;2024-03-06T12:25:02;33.35;;;16.77;;
26502;SDS011;14177;51.520;6.764;2024-03-06T12:27:32;28.17;;;15.07;;
26502;SDS011;14177;51.520;6.764;2024-03-06T12:30:46;26.90;;;14.45;;
26502;SDS011;14177;51.520;6.764;2024-03-06T12:33:19;25.35;;;13.85;;
26502;SDS011;14177;51.520;6.764;2024-03-06T12:35:47;26.15;;;12.85;;
26502;SDS011;14177;51.520;6.764;2024-03-06T12:38:43;24.52;;;13.43;;
26502;SDS011;14177;51.520;6.764;2024-03-06T12:41:15;26.30;;;12.95;;
26502;SDS011;14177;51.520;6.764;2024-03-06T12:43:45;26.90;;;13.88;;
26502;SDS011;14177;51.520;6.764;2024-03-06T12:46:13;25.50;;;13.43;;
26502;SDS011;14177;51.520;6.764;2024-03-06T12:48:47;27.38;;;14.98;;
26502;SDS011;14177;51.520;6.764;2024-03-06T12:51:27;30.13;;;15.43;;
26502;SDS011;14177;51.520;6.764;2024-03-06T12:54:00;20.88;;;12.60;;
26502;SDS011;14177;51.520;6.764;2024-03-06T12:56:41;28.13;;;14.80;;
26502;SDS011;14177;51.520;6.764;2024-03-06T13:00:34;24.88;;;13.68;;
26502;SDS011;14177;51.520;6.764;2024-03-06T13:04:10;23.13;;;12.60;;
26502;SDS011;14177;51.520;6.764;2024-03-06T13:07:30;26.10;;;13.15;;
26502;SDS011;14177;51.520;6.764;2024-03-06T13:10:04;31.77;;;15.43;;
26502;SDS011;14177;51.520;6.764;2024-03-06T13:12:41;28.92;;;15.65;;
26502;SDS011;14177;51.520;6.764;2024-03-06T13:15:33;28.33;;;15.63;;
26502;SDS011;14177;51.520;6.764;2024-03-06T13:18:05;27.75;;;14.95;;
26502;SDS011;14177;51.520;6.764;2024-03-06T13:20:45;28.25;;;14.98;;
26502;SDS011;14177;51.520;6.764;2024-03-06T13:23:14;25.35;;;14.40;;
26502;SDS011;14177;51.520;6.764;2024-03-06T13:26:21;29.13;;;13.88;;
26502;SDS011;14177;51.520;6.764;2024-03-06T13:29:27;26.75;;;14.55;;
26502;SDS011;14177;51.520;6.764;2024-03-06T13:38:13;23.67;;;11.57;;
26502;SDS011;14177;51.520;6.764;2024-03-06T13:42:01;20.63;;;10.52;;
26502;SDS011;14177;51.520;6.764;2024-03-06T13:45:20;15.77;;;9.73;;
26502;SDS011;14177;51.520;6.764;2024-03-06T13:51:22;16.02;;;8.65;;
26502;SDS011;14177;51.520;6.764;2024-03-06T13:54:00;20.40;;;10.55;;
26502;SDS011;14177;51.520;6.764;2024-03-06T13:57:42;15.63;;;8.60;;
26502;SDS011;14177;51.520;6.764;2024-03-06T14:00:11;22.35;;;9.57;;
26502;SDS011;14177;51.520;6.764;2024-03-06T14:02:44;13.57;;;7.72;;
26502;SDS011;14177;51.520;6.764;2024-03-06T14:05:34;14.70;;;8.82;;
26502;SDS011;14177;51.520;6.764;2024-03-06T14:08:02;13.52;;;8.10;;
26502;SDS011;14177;51.520;6.764;2024-03-06T14:10:33;19.15;;;8.70;;
26502;SDS011;14177;51.520;6.764;2024-03-06T14:13:03;16.08;;;9.25;;
26502;SDS011;14177;51.520;6.764;2024-03-06T14:15:31;15.80;;;8.60;;
26502;SDS011;14177;51.520;6.764;2024-03-06T14:18:02;15.82;;;8.43;;
26502;SDS011;14177;51.520;6.764;2024-03-06T14:20:31;16.70;;;8.07;;
26502;SDS011;14177;51.520;6.764;2024-03-06T14:22:59;14.88;;;8.32;;
26502;SDS011;14177;51.520;6.764;2024-03-06T14:25:27;14.60;;;8.05;;
26502;SDS011;14177;51.520;6.764;2024-03-06T14:27:56;18.83;;;8.07;;
26502;SDS011;14177;51.520;6.764;2024-03-06T14:30:25;14.88;;;8.05;;
26502;SDS011;14177;51.520;6.764;2024-03-06T14:32:52;11.23;;;7.78;;
26502;SDS011;14177;51.520;6.764;2024-03-06T14:35:20;15.25;;;7.45;;
26502;SDS011;14177;51.520;6.764;2024-03-06T14:37:48;13.30;;;7.70;;
26502;SDS011;14177;51.520;6.764;2024-03-06T14:40:16;14.73;;;7.22;;
26502;SDS011;14177;51.520;6.764;2024-03-06T14:42:44;16.52;;;7.38;;
26502;SDS011;14177;51.520;6.764;2024-03-06T14:45:12;10.68;;;6.65;;
26502;SDS011;14177;51.520;6.764;2024-03-06T14:47:40;12.27;;;6.68;;
26502;SDS011;14177;51.520;6.764;2024-03-06T14:50:09;15.20;;;7.20;;
26502;SDS011;14177;51.520;6.764;2024-03-06T14:52:37;15.60;;;7.80;;
26502;SDS011;14177;51.520;6.764;2024-03-06T14:55:05;17.67;;;8.43;;
26502;SDS011;14177;51.520;6.764;2024-03-06T14:57:37;19.25;;;8.73;;
26502;SDS011;14177;51.520;6.764;2024-03-06T15:00:07;14.70;;;8.00;;
26502;SDS011;14177;51.520;6.764;2024-03-06T15:02:36;16.83;;;9.43;;
26502;SDS011;14177;51.520;6.764;2024-03-06T15:05:04;16.42;;;8.23;;
26502;SDS011;14177;51.520;6.764;2024-03-06T15:07:33;13.43;;;6.90;;
26502;SDS011;14177;51.520;6.764;2024-03-06T15:10:02;16.85;;;8.73;;
26502;SDS011;14177;51.520;6.764;2024-03-06T15:12:35;15.85;;;9.00;;
26502;SDS011;14177;51.520;6.764;2024-03-06T15:15:03;17.25;;;9.73;;
26502;SDS011;14177;51.520;6.764;2024-03-06T15:17:33;19.05;;;9.23;;
26502;SDS011;14177;51.520;6.764;2024-03-06T15:20:10;19.60;;;9.30;;
26502;SDS011;14177;51.520;6.764;2024-03-06T15:22:42;17.30;;;8.75;;
26502;SDS011;14177;51.520;6.764;2024-03-06T15:25:11;29.08;;;16.25;;
26502;SDS011;14177;51.520;6.764;2024-03-06T15:27:41;30.70;;;17.77;;
26502;SDS011;14177;51.520;6.764;2024-03-06T15:30:09;35.00;;;19.88;;